Time;durP1;ratioP1;P1;durP2;ratioP2;P2;SDS_P1;SDS_P2;PMS_P1;PMS_P2;Temp;Humidity;BMP_temperature;BMP_pressure;BME280_temperature;BME280_humidity;BME280_pressure;Samples;Min_cycle;Max_cycle;Signal;HPM_P1;HPM_P2
2022/03/31 00:02:08;;;;;;;24.70;17.02;;;;;;;;;;5007563;28;20435;-82
2022/03/31 00:04:34;;;;;;;20.65;15.75;;;;;;;;;;5007782;28;20420;-83
2022/03/31 00:07:01;;;;;;;23.15;16.10;;;;;;;;;;5005640;28;20494;-82
2022/03/31 00:09:27;;;;;;;23.97;16.90;;;;;;;;;;5005388;28;20547;-82
2022/03/31 00:11:54;;;;;;;21.38;16.48;;;;;;;;;;5007566;28;20440;-83
2022/03/31 00:14:21;;;;;;;23.15;16.92;;;;;;;;;;5010180;28;20986;-82
2022/03/31 00:16:47;;;;;;;22.25;17.63;;;;;;;;;;5006401;28;20436;-83
2022/03/31 00:19:13;;;;;;;24.17;18.13;;;;;;;;;;5009306;28;20429;-83
2022/03/31 00:21:39;;;;;;;24.75;18.45;;;;;;;;;;5006640;28;20506;-82
2022/03/31 00:24:07;;;;;;;27.55;18.50;;;;;;;;;;5007281;28;20451;-83
2022/03/31 00:26:34;;;;;;;24.20;17.73;;;;;;;;;;5008535;28;20441;-83
2022/03/31 00:29:01;;;;;;;24.35;19.30;;;;;;;;;;5006965;28;20425;-83
2022/03/31 00:31:27;;;;;;;27.95;19.55;;;;;;;;;;5008705;28;20496;-82
2022/03/31 00:33:54;;;;;;;28.20;19.93;;;;;;;;;;5007505;28;20413;-82
2022/03/31 00:36:20;;;;;;;26.58;18.77;;;;;;;;;;5009675;28;20434;-82
2022/03/31 00:41:27;;;;;;;25.25;18.33;;;;;;;;;;5001263;28;20428;-82
2022/03/31 00:43:54;;;;;;;26.38;18.70;;;;;;;;;;5003295;28;20425;-81
2022/03/31 00:46:22;;;;;;;24.00;18.08;;;;;;;;;;5003627;28;20513;-81
2022/03/31 00:48:48;;;;;;;23.27;17.60;;;;;;;;;;5002881;28;20436;-82
2022/03/31 00:51:15;;;;;;;23.30;17.65;;;;;;;;;;5003961;28;20465;-82
2022/03/31 00:53:41;;;;;;;22.80;17.67;;;;;;;;;;5003255;28;21023;-81
2022/03/31 00:56:08;;;;;;;22.75;17.52;;;;;;;;;;5006231;28;20434;-83
2022/03/31 00:58:34;;;;;;;22.48;16.88;;;;;;;;;;5004717;28;20443;-82
2022/03/31 01:01:01;;;;;;;21.42;16.92;;;;;;;;;;5004533;28;20436;-82
2022/03/31 01:03:28;;;;;;;21.57;16.60;;;;;;;;;;5007904;28;20464;-82
2022/03/31 01:05:55;;;;;;;21.90;16.67;;;;;;;;;;5006317;28;20485;-81
2022/03/31 01:08:21;;;;;;;21.08;16.92;;;;;;;;;;5005626;28;20461;-82
2022/03/31 01:10:49;;;;;;;23.95;17.17;;;;;;;;;;5007409;28;20510;-81
2022/03/31 01:13:15;;;;;;;19.73;17.27;;;;;;;;;;5005749;28;20451;-81
2022/03/31 01:15:42;;;;;;;21.83;17.17;;;;;;;;;;5008970;28;20965;-80
2022/03/31 01:18:08;;;;;;;22.60;18.17;;;;;;;;;;5006572;28;20484;-82
2022/03/31 01:20:36;;;;;;;22.20;18.10;;;;;;;;;;5008585;28;20498;-80
2022/03/31 01:23:03;;;;;;;23.20;17.73;;;;;;;;;;5009123;28;20433;-83
2022/03/31 01:25:31;;;;;;;23.35;17.70;;;;;;;;;;5009726;28;20429;-81
2022/03/31 01:27:58;;;;;;;21.95;17.73;;;;;;;;;;5008947;28;20436;-83
2022/03/31 01:30:24;;;;;;;22.60;16.70;;;;;;;;;;5005746;28;20446;-82
2022/03/31 01:32:50;;;;;;;21.60;17.10;;;;;;;;;;5012700;28;20477;-80
2022/03/31 01:35:17;;;;;;;18.87;14.77;;;;;;;;;;5007153;28;20980;-80
2022/03/31 01:37:43;;;;;;;23.13;15.40;;;;;;;;;;5004580;28;20436;-79
2022/03/31 01:40:10;;;;;;;19.65;14.95;;;;;;;;;;4999563;28;20430;-83
2022/03/31 01:42:38;;;;;;;20.75;15.57;;;;;;;;;;5005992;28;20918;-79
2022/03/31 01:45:05;;;;;;;21.05;15.55;;;;;;;;;;5007614;28;20483;-81
2022/03/31 01:47:31;;;;;;;22.35;16.00;;;;;;;;;;5005618;28;21007;-80
2022/03/31 01:49:58;;;;;;;21.40;16.40;;;;;;;;;;5005840;28;20766;-82
2022/03/31 01:52:24;;;;;;;19.80;15.30;;;;;;;;;;5006738;28;20428;-81
2022/03/31 01:54:50;;;;;;;18.83;15.27;;;;;;;;;;5010080;28;20487;-82
2022/03/31 01:57:17;;;;;;;16.50;14.13;;;;;;;;;;5006471;28;20436;-82
2022/03/31 01:59:45;;;;;;;18.17;14.13;;;;;;;;;;5006726;28;20858;-82
2022/03/31 02:02:12;;;;;;;17.80;14.33;;;;;;;;;;5008219;28;20489;-82
2022/03/31 02:04:39;;;;;;;20.77;14.45;;;;;;;;;;5005855;28;20504;-81
2022/03/31 02:07:05;;;;;;;15.73;13.47;;;;;;;;;;5007435;28;20542;-82
2022/03/31 02:09:32;;;;;;;17.50;13.50;;;;;;;;;;5004409;28;20671;-82
2022/03/31 02:11:58;;;;;;;13.10;11.65;;;;;;;;;;5008645;28;20835;-80
2022/03/31 02:14:24;;;;;;;12.80;10.93;;;;;;;;;;5007810;28;20522;-79
2022/03/31 02:16:52;;;;;;;15.40;11.60;;;;;;;;;;5009071;28;20535;-81
2022/03/31 02:19:19;;;;;;;13.30;11.02;;;;;;;;;;5005406;28;20465;-80
2022/03/31 02:21:46;;;;;;;17.05;11.77;;;;;;;;;;5006044;28;20890;-80
2022/03/31 02:24:12;;;;;;;18.60;12.00;;;;;;;;;;5010228;28;20428;-82
2022/03/31 02:26:39;;;;;;;14.80;10.93;;;;;;;;;;5007409;28;20463;-81
2022/03/31 02:29:05;;;;;;;14.60;11.93;;;;;;;;;;5007630;28;20496;-80
2022/03/31 02:31:32;;;;;;;18.00;11.18;;;;;;;;;;5009842;28;20436;-79
2022/03/31 02:34:00;;;;;;;15.63;11.40;;;;;;;;;;5006153;28;20437;-80
2022/03/31 02:36:27;;;;;;;13.20;10.80;;;;;;;;;;5007387;28;20492;-81
2022/03/31 02:38:53;;;;;;;14.40;10.88;;;;;;;;;;5006641;28;20521;-80
2022/03/31 02:41:20;;;;;;;14.73;10.50;;;;;;;;;;5006290;28;20415;-79
2022/03/31 02:43:46;;;;;;;14.55;10.50;;;;;;;;;;5005299;28;20496;-80
2022/03/31 02:46:12;;;;;;;12.00;9.00;;;;;;;;;;5004583;28;20459;-82
2022/03/31 02:48:39;;;;;;;13.18;9.85;;;;;;;;;;5005576;28;20489;-80
2022/03/31 02:51:07;;;;;;;11.70;9.25;;;;;;;;;;5004323;28;20432;-80
2022/03/31 02:56:17;;;;;;;9.20;8.20;;;;;;;;;;5006078;28;20443;-80
2022/03/31 02:58:43;;;;;;;11.38;8.52;;;;;;;;;;5006494;28;20492;-81
2022/03/31 03:01:10;;;;;;;13.60;9.50;;;;;;;;;;5007526;28;20438;-82
2022/03/31 03:03:36;;;;;;;15.57;8.98;;;;;;;;;;5006076;28;20500;-81
2022/03/31 03:06:03;;;;;;;13.00;9.05;;;;;;;;;;5004164;28;20524;-81
2022/03/31 03:08:31;;;;;;;11.40;8.57;;;;;;;;;;5002483;28;20409;-80
2022/03/31 03:10:58;;;;;;;11.13;8.50;;;;;;;;;;5004778;28;20499;-79
2022/03/31 03:13:24;;;;;;;11.15;8.80;;;;;;;;;;5004654;28;20428;-80
2022/03/31 03:15:50;;;;;;;13.48;9.10;;;;;;;;;;5004601;28;20904;-80
2022/03/31 03:18:18;;;;;;;15.50;9.40;;;;;;;;;;5004520;28;20503;-82
2022/03/31 03:20:45;;;;;;;10.60;8.50;;;;;;;;;;5003778;28;20916;-81
2022/03/31 03:23:11;;;;;;;11.02;8.95;;;;;;;;;;5000627;28;20434;-80
2022/03/31 03:25:39;;;;;;;12.20;8.80;;;;;;;;;;5004074;28;21176;-81
2022/03/31 03:28:05;;;;;;;13.50;9.50;;;;;;;;;;5006073;28;20490;-81
2022/03/31 03:30:31;;;;;;;13.00;10.00;;;;;;;;;;5003380;28;20428;-80
2022/03/31 03:32:58;;;;;;;10.63;9.13;;;;;;;;;;5005033;28;20920;-80
2022/03/31 03:35:24;;;;;;;12.70;9.20;;;;;;;;;;5003723;28;20460;-80
2022/03/31 03:37:50;;;;;;;12.75;9.50;;;;;;;;;;5001068;28;20437;-80
2022/03/31 03:40:16;;;;;;;12.15;8.70;;;;;;;;;;5002724;28;20840;-80
2022/03/31 03:42:44;;;;;;;14.50;9.30;;;;;;;;;;5004095;28;20492;-80
2022/03/31 03:45:11;;;;;;;12.02;9.27;;;;;;;;;;5004676;28;20426;-80
2022/03/31 03:47:37;;;;;;;12.48;9.05;;;;;;;;;;5005961;28;20539;-80
2022/03/31 03:50:04;;;;;;;11.02;9.82;;;;;;;;;;5002010;28;20433;-79
2022/03/31 03:52:30;;;;;;;10.80;9.40;;;;;;;;;;5007883;28;20461;-81
2022/03/31 03:54:57;;;;;;;11.07;8.52;;;;;;;;;;5009151;28;20438;-80
2022/03/31 03:57:24;;;;;;;11.30;8.05;;;;;;;;;;5003863;28;20455;-81
2022/03/31 03:59:51;;;;;;;10.48;7.63;;;;;;;;;;5004311;28;20938;-81
2022/03/31 04:02:18;;;;;;;10.85;7.43;;;;;;;;;;5005239;28;20463;-81
2022/03/31 04:04:44;;;;;;;9.60;7.57;;;;;;;;;;5005957;28;20422;-78
2022/03/31 04:07:10;;;;;;;11.60;7.93;;;;;;;;;;5007864;28;20434;-80
2022/03/31 04:09:37;;;;;;;10.32;7.40;;;;;;;;;;5029496;22;20437;-82
2022/03/31 04:12:03;;;;;;;8.10;7.00;;;;;;;;;;5031032;28;20444;-81
2022/03/31 04:14:29;;;;;;;9.73;7.90;;;;;;;;;;5030098;28;20588;-80
2022/03/31 04:16:57;;;;;;;10.82;7.68;;;;;;;;;;5032960;28;20435;-78
2022/03/31 04:19:23;;;;;;;10.27;7.05;;;;;;;;;;5028054;28;20423;-81
2022/03/31 04:21:50;;;;;;;7.75;6.95;;;;;;;;;;5008589;28;20499;-80
2022/03/31 04:24:16;;;;;;;8.77;7.55;;;;;;;;;;5009729;28;20430;-82
2022/03/31 04:26:42;;;;;;;9.52;7.07;;;;;;;;;;5008700;28;20444;-83
2022/03/31 04:29:10;;;;;;;7.90;7.10;;;;;;;;;;5011436;28;20485;-81
2022/03/31 04:31:36;;;;;;;10.88;8.25;;;;;;;;;;5005569;28;20531;-80
2022/03/31 04:34:04;;;;;;;9.82;7.70;;;;;;;;;;5010107;28;20435;-79
2022/03/31 04:36:30;;;;;;;9.88;7.70;;;;;;;;;;5009493;28;20571;-81
2022/03/31 04:38:57;;;;;;;9.48;7.60;;;;;;;;;;5008753;28;20479;-81
2022/03/31 04:41:23;;;;;;;9.70;7.78;;;;;;;;;;5006652;28;20771;-79
2022/03/31 04:43:51;;;;;;;9.15;8.25;;;;;;;;;;5006421;28;20414;-80
2022/03/31 04:46:18;;;;;;;11.10;8.20;;;;;;;;;;5008388;28;20445;-78
2022/03/31 04:48:45;;;;;;;9.82;7.40;;;;;;;;;;5005449;28;20422;-81
2022/03/31 04:51:12;;;;;;;10.20;8.00;;;;;;;;;;5004318;28;20459;-80
2022/03/31 04:53:39;;;;;;;8.60;7.70;;;;;;;;;;5007567;28;20423;-79
2022/03/31 04:56:05;;;;;;;10.07;7.90;;;;;;;;;;5007832;28;20442;-82
2022/03/31 04:58:31;;;;;;;9.35;8.18;;;;;;;;;;5006831;28;20412;-81
2022/03/31 05:00:57;;;;;;;9.57;8.57;;;;;;;;;;5006669;28;20477;-81
2022/03/31 05:03:24;;;;;;;8.70;7.80;;;;;;;;;;5008337;28;20445;-81
2022/03/31 05:05:50;;;;;;;10.13;8.20;;;;;;;;;;5009172;28;20481;-82
2022/03/31 05:08:18;;;;;;;8.98;8.07;;;;;;;;;;5001130;28;20421;-77
2022/03/31 05:10:45;;;;;;;9.10;8.20;;;;;;;;;;4997360;28;20432;-77
2022/03/31 05:13:11;;;;;;;9.88;8.13;;;;;;;;;;4996201;28;20437;-78
2022/03/31 05:15:37;;;;;;;9.25;8.35;;;;;;;;;;4998787;28;20436;-77
2022/03/31 05:18:04;;;;;;;9.13;7.80;;;;;;;;;;4998360;28;20550;-76
2022/03/31 05:20:30;;;;;;;9.95;8.50;;;;;;;;;;4996681;28;20438;-77
2022/03/31 05:22:57;;;;;;;9.15;8.25;;;;;;;;;;4997449;28;20436;-79
2022/03/31 05:25:24;;;;;;;8.75;7.95;;;;;;;;;;4998817;28;20424;-78
2022/03/31 05:27:51;;;;;;;9.40;8.50;;;;;;;;;;4995408;28;20458;-79
2022/03/31 05:30:19;;;;;;;9.30;8.40;;;;;;;;;;4997304;28;21100;-78
2022/03/31 05:32:45;;;;;;;9.97;8.10;;;;;;;;;;4999381;28;20430;-78
2022/03/31 05:35:13;;;;;;;9.45;8.55;;;;;;;;;;4999510;28;20433;-78
2022/03/31 05:37:40;;;;;;;9.63;8.63;;;;;;;;;;4997977;28;20434;-79
2022/03/31 05:40:07;;;;;;;10.23;8.60;;;;;;;;;;4995106;28;20984;-79
2022/03/31 05:42:36;;;;;;;9.52;8.63;;;;;;;;;;4998711;28;20675;-79
2022/03/31 05:45:03;;;;;;;9.57;8.38;;;;;;;;;;4998177;28;21000;-79
2022/03/31 05:47:30;;;;;;;10.45;9.35;;;;;;;;;;5000543;28;20444;-80
2022/03/31 05:49:56;;;;;;;9.60;8.70;;;;;;;;;;4997192;28;20479;-79
2022/03/31 05:52:22;;;;;;;10.50;9.25;;;;;;;;;;4997972;28;20482;-79
2022/03/31 05:54:49;;;;;;;10.45;9.35;;;;;;;;;;4998695;28;20847;-79
2022/03/31 05:57:16;;;;;;;10.32;9.32;;;;;;;;;;4995492;28;20928;-79
2022/03/31 05:59:44;;;;;;;10.77;9.65;;;;;;;;;;4998478;28;20426;-79
2022/03/31 06:02:11;;;;;;;11.38;10.18;;;;;;;;;;4998297;28;20940;-78
2022/03/31 06:04:37;;;;;;;12.70;10.23;;;;;;;;;;4998252;28;20418;-78
2022/03/31 06:07:04;;;;;;;11.38;10.25;;;;;;;;;;4996035;28;20444;-79
2022/03/31 06:09:30;;;;;;;11.73;10.33;;;;;;;;;;4997845;28;20638;-78
2022/03/31 06:11:56;;;;;;;12.18;10.88;;;;;;;;;;4993867;28;21608;-78
2022/03/31 06:14:23;;;;;;;12.60;11.30;;;;;;;;;;4998992;28;20465;-79
2022/03/31 06:16:50;;;;;;;13.02;11.73;;;;;;;;;;4998845;28;20422;-78
2022/03/31 06:19:17;;;;;;;12.75;11.35;;;;;;;;;;4996087;28;20783;-78
2022/03/31 06:21:44;;;;;;;13.73;12.20;;;;;;;;;;4997702;28;20430;-80
2022/03/31 06:24:10;;;;;;;14.77;13.10;;;;;;;;;;4997454;28;20425;-78
2022/03/31 06:26:36;;;;;;;14.48;12.98;;;;;;;;;;4998666;28;20444;-78
2022/03/31 06:29:05;;;;;;;15.48;13.68;;;;;;;;;;4999514;28;20419;-78
2022/03/31 06:31:31;;;;;;;14.65;13.05;;;;;;;;;;5001558;28;20968;-78
2022/03/31 06:33:59;;;;;;;16.17;14.10;;;;;;;;;;5001442;28;20440;-78
2022/03/31 06:36:26;;;;;;;16.42;14.68;;;;;;;;;;5002175;28;20440;-78
2022/03/31 06:38:52;;;;;;;19.10;15.87;;;;;;;;;;4999367;28;20422;-78
2022/03/31 06:41:18;;;;;;;19.05;16.65;;;;;;;;;;5001671;28;20421;-79
2022/03/31 06:43:46;;;;;;;18.73;15.60;;;;;;;;;;5000791;28;20438;-79
2022/03/31 06:46:12;;;;;;;21.80;16.90;;;;;;;;;;4999423;28;20449;-79
2022/03/31 06:48:41;;;;;;;19.85;16.65;;;;;;;;;;5002675;28;20423;-79
2022/03/31 06:51:09;;;;;;;19.83;16.42;;;;;;;;;;5004074;28;20449;-80
2022/03/31 06:53:37;;;;;;;20.57;17.13;;;;;;;;;;5005961;28;20910;-79
2022/03/31 06:56:03;;;;;;;20.08;16.63;;;;;;;;;;5007325;28;20529;-79
2022/03/31 06:58:30;;;;;;;20.50;17.98;;;;;;;;;;5005306;28;20440;-81
2022/03/31 07:00:56;;;;;;;20.02;17.17;;;;;;;;;;5007872;28;20414;-79
2022/03/31 07:03:23;;;;;;;20.40;18.08;;;;;;;;;;5006185;28;20484;-79
2022/03/31 07:05:49;;;;;;;21.08;18.02;;;;;;;;;;5006671;28;20435;-80
2022/03/31 07:08:17;;;;;;;21.67;18.17;;;;;;;;;;5003312;28;20442;-82
2022/03/31 07:10:44;;;;;;;22.95;18.92;;;;;;;;;;5007550;28;20424;-80
2022/03/31 07:13:10;;;;;;;22.13;18.33;;;;;;;;;;5004160;28;20426;-79
2022/03/31 07:15:37;;;;;;;23.52;18.10;;;;;;;;;;5006731;28;20788;-79
2022/03/31 07:18:05;;;;;;;23.70;19.08;;;;;;;;;;5006455;28;20950;-77
2022/03/31 07:20:31;;;;;;;22.70;18.70;;;;;;;;;;5002918;28;20424;-80
2022/03/31 07:22:57;;;;;;;22.13;19.20;;;;;;;;;;5004196;28;20973;-79
2022/03/31 07:25:25;;;;;;;21.10;18.30;;;;;;;;;;5004676;28;20421;-79
2022/03/31 07:27:51;;;;;;;24.33;19.65;;;;;;;;;;5003548;28;20460;-81
2022/03/31 07:30:18;;;;;;;23.17;18.73;;;;;;;;;;5003110;28;20421;-80
2022/03/31 07:32:48;;;;;;;22.90;18.10;;;;;;;;;;5004951;28;20438;-79
2022/03/31 07:35:15;;;;;;;20.47;16.53;;;;;;;;;;5004702;28;20523;-80
2022/03/31 07:37:41;;;;;;;20.30;17.15;;;;;;;;;;5004082;28;20509;-79
2022/03/31 07:40:08;;;;;;;18.33;16.02;;;;;;;;;;5002067;28;20421;-77
2022/03/31 07:42:35;;;;;;;21.45;17.52;;;;;;;;;;4998333;28;20490;-79
2022/03/31 07:45:01;;;;;;;22.23;17.90;;;;;;;;;;5000425;28;20508;-78
2022/03/31 07:47:28;;;;;;;23.73;18.23;;;;;;;;;;5003378;28;20437;-79
2022/03/31 07:49:54;;;;;;;21.40;17.45;;;;;;;;;;5000863;28;20425;-79
2022/03/31 07:52:21;;;;;;;20.05;17.45;;;;;;;;;;5001212;28;20436;-80
2022/03/31 07:54:48;;;;;;;23.85;18.63;;;;;;;;;;4998133;28;20421;-78
2022/03/31 07:57:14;;;;;;;22.85;18.75;;;;;;;;;;4999028;28;20974;-78
2022/03/31 07:59:42;;;;;;;23.35;18.77;;;;;;;;;;4999288;28;20450;-78
2022/03/31 08:02:09;;;;;;;22.30;18.50;;;;;;;;;;4998031;28;20440;-78
2022/03/31 08:04:35;;;;;;;20.53;17.83;;;;;;;;;;4998510;28;20487;-80
2022/03/31 08:07:01;;;;;;;20.20;17.02;;;;;;;;;;4996544;28;20445;-78
2022/03/31 08:09:28;;;;;;;24.08;18.75;;;;;;;;;;4998074;28;20473;-80
2022/03/31 08:11:54;;;;;;;23.23;18.25;;;;;;;;;;4999429;28;20473;-78
2022/03/31 08:14:21;;;;;;;19.52;17.05;;;;;;;;;;4999856;28;20416;-78
2022/03/31 08:16:49;;;;;;;22.25;17.90;;;;;;;;;;4999443;28;20470;-78
2022/03/31 08:19:15;;;;;;;20.88;18.23;;;;;;;;;;4999363;28;20918;-79
2022/03/31 08:21:42;;;;;;;19.90;17.50;;;;;;;;;;4997091;28;20939;-78
2022/03/31 08:24:09;;;;;;;20.10;17.90;;;;;;;;;;4998925;28;20462;-78
2022/03/31 08:26:35;;;;;;;19.83;17.60;;;;;;;;;;4998196;28;20920;-79
2022/03/31 08:29:02;;;;;;;23.15;18.08;;;;;;;;;;4999790;28;20420;-79
2022/03/31 08:31:28;;;;;;;19.40;16.48;;;;;;;;;;5000103;28;20436;-80
2022/03/31 08:33:56;;;;;;;22.55;17.65;;;;;;;;;;4996766;28;20426;-78
2022/03/31 08:36:22;;;;;;;18.83;16.70;;;;;;;;;;4997309;28;21428;-78
2022/03/31 08:38:49;;;;;;;20.37;16.97;;;;;;;;;;4995368;28;20912;-80
2022/03/31 08:41:15;;;;;;;19.23;17.23;;;;;;;;;;4999347;28;20434;-79
2022/03/31 08:43:42;;;;;;;19.42;16.30;;;;;;;;;;4998767;28;20458;-79
2022/03/31 08:46:09;;;;;;;20.55;17.08;;;;;;;;;;4999516;28;20812;-79
2022/03/31 08:48:36;;;;;;;19.48;16.48;;;;;;;;;;4998352;28;20477;-79
2022/03/31 08:51:04;;;;;;;19.90;16.58;;;;;;;;;;4997531;28;20941;-79
2022/03/31 08:53:30;;;;;;;21.47;16.90;;;;;;;;;;4999598;28;20423;-79
2022/03/31 08:55:57;;;;;;;21.08;17.52;;;;;;;;;;5001516;28;20769;-79
2022/03/31 08:58:23;;;;;;;18.70;16.70;;;;;;;;;;4997923;28;20442;-78
2022/03/31 09:00:49;;;;;;;20.50;17.15;;;;;;;;;;5000943;28;20421;-79
2022/03/31 09:03:16;;;;;;;21.52;17.13;;;;;;;;;;4998991;28;20418;-79
2022/03/31 09:05:45;;;;;;;20.08;17.08;;;;;;;;;;5000621;28;20519;-79
2022/03/31 09:08:13;;;;;;;19.20;16.95;;;;;;;;;;4999026;28;20471;-79
2022/03/31 09:10:44;;;;;;;20.70;17.33;;;;;;;;;;4999738;28;20414;-79
2022/03/31 09:13:18;;;;;;;21.08;17.38;;;;;;;;;;4999088;28;20530;-80
2022/03/31 09:15:48;;;;;;;19.23;16.65;;;;;;;;;;4997888;28;20429;-78
2022/03/31 09:18:17;;;;;;;19.23;16.88;;;;;;;;;;5000794;28;20819;-79
2022/03/31 09:20:44;;;;;;;18.48;16.30;;;;;;;;;;4998904;28;20981;-80
2022/03/31 09:23:16;;;;;;;18.33;16.02;;;;;;;;;;4999142;28;20420;-79
2022/03/31 09:25:42;;;;;;;17.60;15.80;;;;;;;;;;4999913;28;20555;-79
2022/03/31 09:28:12;;;;;;;20.10;17.33;;;;;;;;;;4998689;28;20434;-79
2022/03/31 09:30:43;;;;;;;18.70;16.50;;;;;;;;;;4998842;28;20428;-79
2022/03/31 09:33:09;;;;;;;18.90;16.38;;;;;;;;;;5002541;28;20430;-79
2022/03/31 09:35:35;;;;;;;18.80;16.25;;;;;;;;;;5001520;28;20441;-79
2022/03/31 09:38:11;;;;;;;18.15;16.35;;;;;;;;;;4999602;28;20421;-80
2022/03/31 09:40:38;;;;;;;18.00;16.10;;;;;;;;;;5000051;28;20436;-79
2022/03/31 09:43:05;;;;;;;19.85;17.60;;;;;;;;;;5001608;28;20844;-80
2022/03/31 09:45:38;;;;;;;19.20;16.30;;;;;;;;;;4998688;28;20939;-79
2022/03/31 09:48:05;;;;;;;19.63;17.52;;;;;;;;;;5000519;28;20439;-79
2022/03/31 09:50:36;;;;;;;18.52;16.42;;;;;;;;;;5000531;28;20467;-80
2022/03/31 09:53:02;;;;;;;20.60;16.35;;;;;;;;;;5000363;28;20927;-80
2022/03/31 09:55:28;;;;;;;22.58;18.02;;;;;;;;;;5003194;28;20422;-80
2022/03/31 09:57:57;;;;;;;19.00;17.00;;;;;;;;;;5004492;28;20424;-79
2022/03/31 10:00:23;;;;;;;19.07;16.03;;;;;;;;;;5000470;28;20432;-79
2022/03/31 10:02:49;;;;;;;18.10;16.15;;;;;;;;;;5002473;28;20424;-79
2022/03/31 10:05:16;;;;;;;20.15;16.90;;;;;;;;;;5003552;28;20468;-79
2022/03/31 10:07:44;;;;;;;18.90;17.00;;;;;;;;;;5001957;28;20449;-80
2022/03/31 10:10:11;;;;;;;16.65;14.90;;;;;;;;;;5034275;22;20785;-82
2022/03/31 10:12:40;;;;;;;18.02;16.13;;;;;;;;;;5055457;28;20437;-82
2022/03/31 10:15:10;;;;;;;17.80;15.90;;;;;;;;;;5056622;28;20471;-82
2022/03/31 10:17:36;;;;;;;17.67;15.77;;;;;;;;;;5061507;28;20897;-82
2022/03/31 10:20:08;;;;;;;15.40;13.80;;;;;;;;;;5059514;28;20503;-83
2022/03/31 10:25:19;;;;;;;17.43;14.80;;;;;;;;;;5061104;28;20457;-83
2022/03/31 10:27:46;;;;;;;17.95;14.82;;;;;;;;;;5060805;28;20415;-82
2022/03/31 10:30:15;;;;;;;16.90;15.15;;;;;;;;;;5056729;28;20435;-84
2022/03/31 10:32:50;;;;;;;15.00;13.43;;;;;;;;;;5059716;28;20429;-83
2022/03/31 10:35:20;;;;;;;16.00;14.30;;;;;;;;;;5061430;28;20412;-83
2022/03/31 10:37:46;;;;;;;16.13;14.50;;;;;;;;;;5059885;28;20432;-81
2022/03/31 10:40:13;;;;;;;15.70;13.60;;;;;;;;;;5061704;28;21005;-79
2022/03/31 10:42:39;;;;;;;14.15;12.65;;;;;;;;;;5056347;28;21063;-80
2022/03/31 10:45:07;;;;;;;16.20;12.30;;;;;;;;;;5058713;28;20426;-80
2022/03/31 10:47:36;;;;;;;15.10;12.75;;;;;;;;;;5059778;28;20816;-80
2022/03/31 10:50:03;;;;;;;13.15;11.80;;;;;;;;;;5057046;28;20478;-80
2022/03/31 10:52:32;;;;;;;13.48;12.02;;;;;;;;;;5061642;28;20421;-81
2022/03/31 10:55:05;;;;;;;15.77;12.13;;;;;;;;;;5062165;28;20850;-81
2022/03/31 10:57:38;;;;;;;13.73;11.90;;;;;;;;;;5061520;28;20408;-80
2022/03/31 11:00:07;;;;;;;15.55;13.07;;;;;;;;;;5060595;28;20508;-81
2022/03/31 11:02:39;;;;;;;12.95;11.57;;;;;;;;;;5056468;28;20427;-81
2022/03/31 11:05:07;;;;;;;13.50;12.00;;;;;;;;;;5061259;28;20418;-81
2022/03/31 11:07:33;;;;;;;12.50;11.30;;;;;;;;;;5060567;28;20412;-81
2022/03/31 11:10:00;;;;;;;17.02;11.75;;;;;;;;;;5061014;28;20415;-80
2022/03/31 11:12:28;;;;;;;14.55;12.25;;;;;;;;;;5058178;28;20489;-81
2022/03/31 11:14:55;;;;;;;14.57;12.77;;;;;;;;;;5058594;28;20444;-81
2022/03/31 11:17:22;;;;;;;14.00;12.50;;;;;;;;;;5061305;28;20836;-81
2022/03/31 11:19:50;;;;;;;16.58;13.60;;;;;;;;;;5060395;28;20425;-80
2022/03/31 11:22:19;;;;;;;17.02;14.27;;;;;;;;;;5061262;28;20428;-81
2022/03/31 11:24:45;;;;;;;15.50;13.93;;;;;;;;;;5060400;28;20425;-80
2022/03/31 11:27:11;;;;;;;15.30;13.70;;;;;;;;;;5060136;28;20440;-81
2022/03/31 11:29:38;;;;;;;14.07;12.68;;;;;;;;;;5056390;28;20440;-81
2022/03/31 11:32:05;;;;;;;17.07;13.80;;;;;;;;;;5060721;28;20481;-81
2022/03/31 11:34:31;;;;;;;15.30;12.48;;;;;;;;;;5061295;28;20414;-81
2022/03/31 11:37:00;;;;;;;14.25;12.45;;;;;;;;;;5061249;28;20493;-81
2022/03/31 11:39:28;;;;;;;15.55;12.82;;;;;;;;;;5057980;28;20413;-81
2022/03/31 11:41:55;;;;;;;13.60;12.17;;;;;;;;;;5059096;28;20443;-80
2022/03/31 11:44:21;;;;;;;15.20;13.00;;;;;;;;;;5056132;28;20444;-81
2022/03/31 11:46:49;;;;;;;14.85;13.00;;;;;;;;;;5059158;28;20455;-81
2022/03/31 11:49:15;;;;;;;15.35;13.55;;;;;;;;;;5058116;28;20534;-81
2022/03/31 11:51:48;;;;;;;13.20;11.90;;;;;;;;;;5060210;28;20417;-80
2022/03/31 11:54:15;;;;;;;13.65;11.65;;;;;;;;;;5059391;28;20413;-81
2022/03/31 11:56:42;;;;;;;13.35;11.85;;;;;;;;;;5060760;28;20419;-80
2022/03/31 11:59:08;;;;;;;13.05;11.57;;;;;;;;;;5058883;28;20408;-81
2022/03/31 12:01:37;;;;;;;13.20;11.80;;;;;;;;;;5057324;28;20433;-81
2022/03/31 12:04:03;;;;;;;12.52;11.23;;;;;;;;;;5060088;28;20976;-81
2022/03/31 12:06:31;;;;;;;12.93;11.48;;;;;;;;;;5059929;28;20433;-81
2022/03/31 12:08:58;;;;;;;14.00;10.70;;;;;;;;;;5058027;28;20419;-81
2022/03/31 12:11:29;;;;;;;11.75;10.55;;;;;;;;;;5060300;28;20838;-82
2022/03/31 12:13:57;;;;;;;11.73;9.93;;;;;;;;;;5055906;28;20897;-83
2022/03/31 12:16:23;;;;;;;11.67;10.50;;;;;;;;;;5059192;28;20528;-81
2022/03/31 12:18:53;;;;;;;10.73;9.63;;;;;;;;;;5060368;28;20469;-82
2022/03/31 12:21:20;;;;;;;10.30;9.30;;;;;;;;;;5060209;28;21098;-81
2022/03/31 12:23:47;;;;;;;10.18;9.07;;;;;;;;;;5060571;28;20412;-80
2022/03/31 12:26:15;;;;;;;10.98;9.25;;;;;;;;;;5059023;28;20516;-82
2022/03/31 12:28:43;;;;;;;9.02;8.13;;;;;;;;;;5052220;28;20413;-81
2022/03/31 12:31:19;;;;;;;10.73;9.10;;;;;;;;;;5059301;28;20425;-81
2022/03/31 12:33:48;;;;;;;10.93;8.65;;;;;;;;;;5059364;28;20409;-80
2022/03/31 12:36:14;;;;;;;10.65;9.00;;;;;;;;;;5060478;28;20407;-82
2022/03/31 12:38:43;;;;;;;9.48;7.90;;;;;;;;;;5058889;28;21103;-82
2022/03/31 12:41:14;;;;;;;9.40;8.50;;;;;;;;;;5059300;28;20510;-82
2022/03/31 12:43:41;;;;;;;8.73;7.20;;;;;;;;;;5057421;28;20429;-82
2022/03/31 12:46:16;;;;;;;11.30;8.00;;;;;;;;;;5050338;28;20444;-81
2022/03/31 12:48:53;;;;;;;9.47;8.53;;;;;;;;;;5058083;28;20506;-83
2022/03/31 12:51:19;;;;;;;8.10;7.30;;;;;;;;;;5054118;28;20432;-81
2022/03/31 12:53:45;;;;;;;9.38;7.57;;;;;;;;;;5055534;28;20409;-80
2022/03/31 12:56:12;;;;;;;8.55;6.90;;;;;;;;;;5059707;28;20412;-81
2022/03/31 12:58:38;;;;;;;9.50;6.60;;;;;;;;;;5052466;28;20409;-82
2022/03/31 13:01:05;;;;;;;8.27;6.40;;;;;;;;;;5058882;28;20441;-82
2022/03/31 13:03:32;;;;;;;6.40;5.27;;;;;;;;;;5059450;28;20416;-81
2022/03/31 13:06:01;;;;;;;6.97;5.38;;;;;;;;;;5059039;28;20429;-81
2022/03/31 13:08:27;;;;;;;5.80;5.20;;;;;;;;;;5057496;28;20510;-81
2022/03/31 13:10:54;;;;;;;5.47;4.97;;;;;;;;;;5057921;28;20436;-81
2022/03/31 13:13:20;;;;;;;5.97;5.00;;;;;;;;;;5059429;28;20457;-80
2022/03/31 13:15:46;;;;;;;5.05;4.43;;;;;;;;;;5055842;28;20481;-80
2022/03/31 13:18:12;;;;;;;5.50;4.90;;;;;;;;;;5058262;28;20428;-82
2022/03/31 13:20:40;;;;;;;7.07;4.68;;;;;;;;;;5060340;28;20424;-82
2022/03/31 13:23:06;;;;;;;5.40;4.90;;;;;;;;;;5056225;28;20482;-81
2022/03/31 13:25:33;;;;;;;6.25;5.00;;;;;;;;;;5059476;28;20442;-81
2022/03/31 13:27:59;;;;;;;5.40;4.90;;;;;;;;;;5054577;28;20971;-80
2022/03/31 13:30:26;;;;;;;5.80;5.05;;;;;;;;;;5055758;28;21093;-82
2022/03/31 13:32:52;;;;;;;7.15;5.22;;;;;;;;;;5059120;28;20419;-81
2022/03/31 13:35:18;;;;;;;6.03;4.90;;;;;;;;;;5059599;28;20415;-81
2022/03/31 13:37:48;;;;;;;5.43;4.82;;;;;;;;;;5061917;28;20464;-79
2022/03/31 13:40:14;;;;;;;4.95;4.10;;;;;;;;;;5062489;28;20438;-80
2022/03/31 13:42:41;;;;;;;5.80;4.50;;;;;;;;;;5062371;28;20514;-80
2022/03/31 13:45:11;;;;;;;5.38;4.50;;;;;;;;;;5063327;28;20473;-80
2022/03/31 13:47:38;;;;;;;5.35;4.40;;;;;;;;;;5059824;28;20509;-81
2022/03/31 13:50:04;;;;;;;6.60;4.72;;;;;;;;;;5060802;28;20475;-80
2022/03/31 13:52:30;;;;;;;5.77;4.17;;;;;;;;;;5061582;28;20485;-79
2022/03/31 13:54:58;;;;;;;7.05;4.70;;;;;;;;;;5062023;28;20419;-80
2022/03/31 14:02:55;;;;;;;8.00;4.20;;;;;;;;;;5061566;28;20448;-79
2022/03/31 14:05:21;;;;;;;5.20;3.78;;;;;;;;;;5058687;28;21089;-81
2022/03/31 14:07:49;;;;;;;5.00;3.83;;;;;;;;;;5060995;28;20432;-81
2022/03/31 14:10:18;;;;;;;5.68;3.85;;;;;;;;;;5061687;28;20423;-80
2022/03/31 14:12:44;;;;;;;4.53;3.60;;;;;;;;;;5062613;28;20421;-79
2022/03/31 14:15:10;;;;;;;7.53;3.50;;;;;;;;;;5063185;28;20417;-81
2022/03/31 14:17:37;;;;;;;5.95;3.90;;;;;;;;;;5062358;28;20424;-81
2022/03/31 14:20:03;;;;;;;4.40;3.60;;;;;;;;;;5057613;28;20783;-82
2022/03/31 14:22:29;;;;;;;4.80;3.60;;;;;;;;;;5059954;28;20435;-81
2022/03/31 14:24:56;;;;;;;6.15;3.38;;;;;;;;;;5061540;28;20465;-81
2022/03/31 14:27:23;;;;;;;5.22;3.17;;;;;;;;;;5061652;28;20429;-81
2022/03/31 14:29:49;;;;;;;3.47;3.10;;;;;;;;;;5060503;28;20428;-81
2022/03/31 14:32:16;;;;;;;3.80;3.20;;;;;;;;;;5062390;28;20614;-81
2022/03/31 14:34:42;;;;;;;5.70;3.70;;;;;;;;;;5061970;28;20764;-81
2022/03/31 14:37:09;;;;;;;4.97;3.10;;;;;;;;;;5059933;28;20427;-81
2022/03/31 14:39:35;;;;;;;3.38;2.90;;;;;;;;;;5059946;28;20411;-81